METAR Formatted Surface Weather Observation
Issued by NWS

Home | Current Version | Previous Version | Text Only | Print | Product List | Glossary On
Versions: 1 2 3 4 5 6
000
SAUS43 KMQT 022155
MTRP59
METAR KP59 022151Z AUTO 00000KT 20/17 A2995 RMK AO1 SLP138 T02000172



USA.gov is the U.S. government's official web portal to all federal, state and local government web resources and services.